createdAt,value
2023-03-02T00:02:05.337Z,1012.2
2023-03-02T00:07:13.325Z,1012.2
2023-03-02T00:12:19.645Z,1012.2
2023-03-02T00:17:25.984Z,1012.1
2023-03-02T00:22:32.379Z,1012
2023-03-02T00:27:38.714Z,1012.1
2023-03-02T00:32:45.072Z,1012
2023-03-02T00:37:51.515Z,1012.1
2023-03-02T00:42:59.365Z,1012
2023-03-02T00:48:05.738Z,1012
2023-03-02T00:53:12.121Z,1012
2023-03-02T00:58:18.457Z,1012
2023-03-02T01:03:24.858Z,1011.9
2023-03-02T01:08:31.169Z,1011.8
2023-03-02T01:13:37.518Z,1011.7
2023-03-02T01:18:43.891Z,1011.7
2023-03-02T01:23:50.401Z,1011.6
2023-03-02T01:28:56.598Z,1011.6
2023-03-02T01:34:03.041Z,1011.5
2023-03-02T01:39:09.317Z,1011.5
2023-03-02T01:44:15.646Z,1011.4
2023-03-02T01:49:22.014Z,1011.3
2023-03-02T01:54:28.415Z,1011.2
2023-03-02T01:59:34.714Z,1011.3
2023-03-02T02:04:41.071Z,1011.3
2023-03-02T02:09:47.452Z,1011.3
2023-03-02T02:14:53.763Z,1011.2
2023-03-02T02:20:00.159Z,1011.3
2023-03-02T02:25:06.530Z,1011.2
2023-03-02T02:30:12.835Z,1011.2
2023-03-02T02:35:19.254Z,1011.2
2023-03-02T02:40:25.603Z,1011.1
2023-03-02T02:45:31.969Z,1011.1
2023-03-02T02:50:38.282Z,1011.1
2023-03-02T02:55:44.626Z,1011.1
2023-03-02T03:00:51.012Z,1011.1
2023-03-02T03:05:57.325Z,1011.1
2023-03-02T03:11:03.735Z,1011.1
2023-03-02T03:16:10.040Z,1011
2023-03-02T03:21:16.375Z,1011
2023-03-02T03:26:22.777Z,1011
2023-03-02T03:31:29.112Z,1011
2023-03-02T03:36:35.669Z,1011
2023-03-02T03:41:41.846Z,1011
2023-03-02T03:46:48.164Z,1010.9
2023-03-02T03:51:54.505Z,1010.9
2023-03-02T03:57:00.916Z,1011
2023-03-02T04:02:07.236Z,1011
2023-03-02T04:07:13.569Z,1011
2023-03-02T04:12:20.308Z,1010.9
2023-03-02T04:17:26.315Z,1010.9
2023-03-02T04:22:32.644Z,1010.9
2023-03-02T04:27:39.032Z,1011
2023-03-02T04:32:45.376Z,1011
2023-03-02T04:37:51.718Z,1010.9
2023-03-02T04:42:58.122Z,1010.9
2023-03-02T04:48:04.430Z,1010.9
2023-03-02T04:53:12.397Z,1010.9
2023-03-02T04:58:18.868Z,1010.9
2023-03-02T05:03:25.126Z,1010.9
2023-03-02T05:08:31.497Z,1010.9
2023-03-02T05:13:37.943Z,1010.9
2023-03-02T05:23:52.108Z,1010.7
2023-03-02T05:28:58.514Z,1010.8
2023-03-02T05:34:04.873Z,1010.8
2023-03-02T05:39:11.192Z,1010.8
2023-03-02T05:44:17.581Z,1010.8
2023-03-02T05:49:23.897Z,1010.8
2023-03-02T05:54:30.495Z,1010.8
2023-03-02T05:59:36.650Z,1010.9
2023-03-02T06:04:43.055Z,1011
2023-03-02T06:09:49.320Z,1011
2023-03-02T06:14:55.712Z,1011.1
2023-03-02T06:20:02.037Z,1011
2023-03-02T06:25:09.984Z,1011
2023-03-02T06:30:16.360Z,1011.1
2023-03-02T06:35:22.840Z,1011
2023-03-02T06:40:29.081Z,1011.1
2023-03-02T06:45:35.521Z,1011.1
2023-03-02T06:50:41.788Z,1011.1
2023-03-02T06:55:49.734Z,1011.2
2023-03-02T07:00:56.236Z,1011.2
2023-03-02T07:06:04.065Z,1011.3
2023-03-02T07:11:10.384Z,1011.3
2023-03-02T07:16:16.844Z,1011.3
2023-03-02T07:21:23.126Z,1011.2
2023-03-02T07:26:29.502Z,1011.2
2023-03-02T07:31:37.460Z,1011.3
2023-03-02T07:36:43.770Z,1011.3
2023-03-02T07:41:50.112Z,1011.3
2023-03-02T07:46:56.630Z,1011.2
2023-03-02T07:52:02.902Z,1011.3
2023-03-02T07:57:09.204Z,1011.3
2023-03-02T08:02:15.576Z,1011.3
2023-03-02T08:07:21.955Z,1011.2
2023-03-02T08:12:28.265Z,1011.3
2023-03-02T08:17:34.654Z,1011.3
2023-03-02T08:22:40.974Z,1011.3
2023-03-02T08:27:47.325Z,1011.4
2023-03-02T08:32:55.313Z,1011.4
2023-03-02T08:38:01.647Z,1011.3
2023-03-02T08:43:08.216Z,1011.2
2023-03-02T08:48:14.406Z,1011.2
2023-03-02T08:53:20.807Z,1011.2
2023-03-02T08:58:27.055Z,1011.2
2023-03-02T09:03:35.042Z,1011.1
2023-03-02T09:08:41.360Z,1011.1
2023-03-02T09:13:47.729Z,1011.1
2023-03-02T09:18:54.115Z,1011
2023-03-02T09:24:00.595Z,1011
2023-03-02T09:29:06.806Z,1011
2023-03-02T09:34:13.188Z,1011
2023-03-02T09:39:19.529Z,1011
2023-03-02T09:44:25.877Z,1011
2023-03-02T09:49:32.224Z,1010.9
2023-03-02T09:54:38.652Z,1010.9
2023-03-02T09:59:44.944Z,1010.9
2023-03-02T10:04:51.372Z,1010.8
2023-03-02T10:09:57.632Z,1010.8
2023-03-02T10:15:04.020Z,1010.8
2023-03-02T10:20:10.359Z,1010.8
2023-03-02T10:25:16.720Z,1010.7
2023-03-02T10:30:23.053Z,1010.7
2023-03-02T10:35:29.541Z,1010.7
2023-03-02T10:40:35.786Z,1010.7
2023-03-02T10:45:42.131Z,1010.7
2023-03-02T10:50:48.511Z,1010.6
2023-03-02T10:55:54.847Z,1010.6
2023-03-02T11:01:01.202Z,1010.6
2023-03-02T11:06:07.576Z,1010.6
2023-03-02T11:11:13.917Z,1010.5
2023-03-02T11:16:20.362Z,1010.3
2023-03-02T11:21:26.641Z,1010.3
2023-03-02T11:26:33.016Z,1010.3
2023-03-02T11:31:41.118Z,1010.4
2023-03-02T11:36:47.297Z,1010.3
2023-03-02T11:41:53.632Z,1010.3
2023-03-02T11:47:00.141Z,1010.3
2023-03-02T11:52:06.424Z,1010.3
2023-03-02T11:57:12.709Z,1010.3
2023-03-02T12:02:19.097Z,1010.3
2023-03-02T12:07:25.447Z,1010.2
2023-03-02T12:12:31.755Z,1010.2
2023-03-02T12:17:38.154Z,1010.2
2023-03-02T12:22:44.516Z,1010.2
2023-03-02T12:27:50.841Z,1010.1
2023-03-02T12:32:57.208Z,1010
2023-03-02T12:38:03.667Z,1010
2023-03-02T12:43:09.975Z,1010
2023-03-02T12:48:16.417Z,1009.9
2023-03-02T12:53:22.745Z,1009.8
2023-03-02T12:58:28.971Z,1009.8
2023-03-02T13:03:35.340Z,1009.7
2023-03-02T13:08:41.740Z,1009.7
2023-03-02T13:13:48.096Z,1009.6
2023-03-02T13:18:54.385Z,1009.5
2023-03-02T13:24:00.763Z,1009.5
2023-03-02T13:29:07.107Z,1009.4
2023-03-02T13:34:13.437Z,1009.4
2023-03-02T13:39:21.418Z,1009.4
2023-03-02T13:44:27.761Z,1009.4
2023-03-02T13:49:34.105Z,1009.3
2023-03-02T13:54:40.557Z,1009.3
2023-03-02T13:59:46.833Z,1009.3
2023-03-02T14:04:53.321Z,1009.3
2023-03-02T14:09:59.560Z,1009.2
2023-03-02T14:15:05.921Z,1009.1
2023-03-02T14:20:12.245Z,1009.1
2023-03-02T14:25:18.632Z,1009.1
2023-03-02T14:30:24.952Z,1009
2023-03-02T14:35:31.322Z,1009
2023-03-02T14:40:37.693Z,1009
2023-03-02T14:45:44.006Z,1008.9
2023-03-02T14:50:50.371Z,1008.8
2023-03-02T14:55:56.774Z,1008.8
2023-03-02T15:01:03.104Z,1008.8
2023-03-02T15:06:09.458Z,1008.8
2023-03-02T15:11:15.820Z,1008.8
2023-03-02T15:16:22.190Z,1008.8
2023-03-02T15:21:30.120Z,1008.8
2023-03-02T15:26:36.492Z,1008.8
2023-03-02T15:31:44.493Z,1008.8
2023-03-02T15:36:50.758Z,1008.8
2023-03-02T15:41:57.150Z,1008.8
2023-03-02T15:47:03.622Z,1008.8
2023-03-02T15:57:17.802Z,1008.7
2023-03-02T16:02:24.144Z,1008.8
2023-03-02T16:07:32.110Z,1008.8
2023-03-02T16:12:38.495Z,1008.9
2023-03-02T16:17:46.410Z,1008.9
2023-03-02T16:22:52.776Z,1009
2023-03-02T16:27:59.185Z,1009
2023-03-02T16:33:05.462Z,1009
2023-03-02T16:38:11.822Z,1009
2023-03-02T16:43:18.231Z,1009
2023-03-02T16:48:24.550Z,1009.1
2023-03-02T16:53:30.899Z,1009.1
2023-03-02T16:58:37.338Z,1009.1
2023-03-02T17:03:43.606Z,1009.1
2023-03-02T17:08:49.950Z,1009.2
2023-03-02T17:13:56.342Z,1009.3
2023-03-02T17:19:02.766Z,1009.4
2023-03-02T17:24:09.020Z,1009.5
2023-03-02T17:29:15.407Z,1009.5
2023-03-02T17:34:21.753Z,1009.6
2023-03-02T17:39:28.109Z,1009.6
2023-03-02T17:44:34.460Z,1009.7
2023-03-02T17:49:40.800Z,1009.7
2023-03-02T18:05:03.167Z,1009.9
2023-03-02T18:10:09.459Z,1010
2023-03-02T18:15:15.768Z,1010
2023-03-02T18:20:22.176Z,1010
2023-03-02T18:25:28.499Z,1010.1
2023-03-02T18:35:42.812Z,1010
2023-03-02T18:40:49.154Z,1010.2
2023-03-02T18:45:55.522Z,1010.2
2023-03-02T18:51:01.893Z,1010.2
2023-03-02T18:56:08.220Z,1010.3
2023-03-02T19:01:14.632Z,1010.3
2023-03-02T19:06:20.944Z,1010.3
2023-03-02T19:11:27.284Z,1010.3
2023-03-02T19:16:33.674Z,1010.4
2023-03-02T19:21:40.066Z,1010.4
2023-03-02T19:26:46.364Z,1010.4
2023-03-02T19:31:52.845Z,1010.3
2023-03-02T19:36:59.107Z,1010.5
2023-03-02T19:42:05.423Z,1010.4
2023-03-02T19:47:11.778Z,1010.5
2023-03-02T19:52:18.169Z,1010.5
2023-03-02T19:57:24.490Z,1010.5
2023-03-02T20:02:30.912Z,1010.6
2023-03-02T20:07:39.176Z,1010.6
2023-03-02T20:12:45.143Z,1010.7
2023-03-02T20:17:51.748Z,1010.7
2023-03-02T20:22:57.869Z,1010.8
2023-03-02T20:28:04.205Z,1010.9
2023-03-02T20:33:10.569Z,1010.9
2023-03-02T20:38:16.957Z,1011
2023-03-02T20:43:23.274Z,1011
2023-03-02T20:48:29.656Z,1011
2023-03-02T20:53:36.034Z,1010.9
2023-03-02T20:58:42.345Z,1011
2023-03-02T21:03:48.703Z,1011
2023-03-02T21:08:55.068Z,1011
2023-03-02T21:14:01.409Z,1010.9
2023-03-02T21:19:07.766Z,1010.9
2023-03-02T21:24:14.145Z,1010.9
2023-03-02T21:29:22.077Z,1010.8
2023-03-02T21:34:28.429Z,1010.8
2023-03-02T21:39:34.837Z,1010.8
2023-03-02T21:44:41.247Z,1010.8
2023-03-02T21:49:47.508Z,1010.8
2023-03-02T21:54:53.879Z,1010.8
2023-03-02T22:00:00.215Z,1010.8
2023-03-02T22:05:06.575Z,1010.7
2023-03-02T22:10:12.981Z,1010.8
2023-03-02T22:15:19.273Z,1010.8
2023-03-02T22:20:25.643Z,1010.8
2023-03-02T22:25:33.627Z,1010.8
2023-03-02T22:30:39.937Z,1010.9
2023-03-02T22:35:46.365Z,1010.9
2023-03-02T22:40:54.289Z,1010.9
2023-03-02T22:46:00.612Z,1011
2023-03-02T22:56:14.954Z,1011
2023-03-02T23:01:21.343Z,1011.1
2023-03-02T23:06:27.667Z,1011.1
2023-03-02T23:11:34.042Z,1011.1
2023-03-02T23:16:40.372Z,1011.2
2023-03-02T23:21:46.691Z,1011.1
2023-03-02T23:32:01.176Z,1011.2
2023-03-02T23:37:07.415Z,1011.3
2023-03-02T23:42:13.779Z,1011.3
2023-03-02T23:47:20.125Z,1011.2
2023-03-02T23:52:26.452Z,1011.2
2023-03-02T23:57:32.799Z,1011.2
